createdAt,value
2023-11-24T00:01:48.873Z,97885.34
2023-11-24T00:04:21.826Z,97864.13
2023-11-24T00:06:55.243Z,97864.88
2023-11-24T00:09:30.319Z,97860.41
2023-11-24T00:12:03.310Z,97854.97
2023-11-24T00:14:37.537Z,97850.53
2023-11-24T00:17:10.641Z,97839.84
2023-11-24T00:19:43.486Z,97821.16
2023-11-24T00:22:16.307Z,97834.41
2023-11-24T00:24:53.066Z,97837.81
2023-11-24T00:27:26.122Z,97817.31
2023-11-24T00:30:00.412Z,97814.44
2023-11-24T00:32:34.237Z,97819.53
2023-11-24T00:35:07.946Z,97828.22
2023-11-24T00:37:40.947Z,97837.47
2023-11-24T00:40:15.108Z,97846.94
2023-11-24T00:42:50.906Z,97831.72
2023-11-24T00:45:25.140Z,97830.66
2023-11-24T00:47:58.059Z,97831.41
2023-11-24T00:50:30.874Z,97840.00
2023-11-24T00:53:03.893Z,97840.00
2023-11-24T00:55:36.737Z,97854.09
2023-11-24T00:58:09.893Z,97843.38
2023-11-24T01:00:44.235Z,97826.63
2023-11-24T01:03:17.350Z,97831.09
2023-11-24T01:05:50.912Z,97827.66
2023-11-24T01:08:24.230Z,97843.91
2023-11-24T01:10:58.834Z,97839.69
2023-11-24T01:13:34.144Z,97840.13
2023-11-24T01:16:09.229Z,97841.50
2023-11-24T01:18:42.553Z,97840.03
2023-11-24T01:21:18.176Z,97844.94
2023-11-24T01:23:53.205Z,97847.78
2023-11-24T01:26:26.828Z,97839.16
2023-11-24T01:29:00.828Z,97842.91
2023-11-24T01:31:34.962Z,97829.22
2023-11-24T01:34:07.859Z,97821.78
2023-11-24T01:36:40.763Z,97825.06
2023-11-24T01:39:13.840Z,97807.91
2023-11-24T01:41:47.064Z,97815.28
2023-11-24T01:44:21.240Z,97811.16
2023-11-24T01:46:56.180Z,97820.47
2023-11-24T01:49:30.162Z,97806.59
2023-11-24T01:52:04.054Z,97821.66
2023-11-24T01:54:38.959Z,97830.44
2023-11-24T01:57:13.526Z,97819.75
2023-11-24T01:59:46.328Z,97822.19
2023-11-24T02:02:21.972Z,97821.00
2023-11-24T02:04:55.619Z,97818.91
2023-11-24T02:07:28.535Z,97822.31
2023-11-24T02:10:02.351Z,97825.59
2023-11-24T02:12:35.287Z,97824.53
2023-11-24T02:15:10.132Z,97830.47
2023-11-24T02:17:44.424Z,97814.34
2023-11-24T02:20:17.591Z,97816.91
2023-11-24T02:22:52.136Z,97810.56
2023-11-24T02:25:25.610Z,97798.97
2023-11-24T02:27:58.496Z,97798.22
2023-11-24T02:30:31.428Z,97792.31
2023-11-24T02:33:05.035Z,97798.56
2023-11-24T02:35:39.233Z,97802.25
2023-11-24T02:38:13.566Z,97797.41
2023-11-24T02:40:46.454Z,97795.06
2023-11-24T02:43:19.323Z,97796.31
2023-11-24T02:45:52.327Z,97813.59
2023-11-24T02:48:25.253Z,97815.91
2023-11-24T02:50:58.148Z,97812.81
2023-11-24T02:53:32.767Z,97822.09
2023-11-24T02:56:06.332Z,97807.56
2023-11-24T02:58:39.132Z,97817.63
2023-11-24T03:01:12.277Z,97824.16
2023-11-24T03:03:46.254Z,97817.38
2023-11-24T03:06:19.287Z,97815.97
2023-11-24T03:08:53.500Z,97818.91
2023-11-24T03:11:26.440Z,97823.66
2023-11-24T03:13:59.490Z,97814.34
2023-11-24T03:16:32.880Z,97819.75
2023-11-24T03:19:05.901Z,97823.53
2023-11-24T03:21:38.770Z,97826.56
2023-11-24T03:24:13.044Z,97823.28
2023-11-24T03:26:45.903Z,97816.47
2023-11-24T03:29:18.733Z,97815.81
2023-11-24T03:31:52.322Z,97808.06
2023-11-24T03:34:25.239Z,97821.41
2023-11-24T03:36:59.277Z,97812.53
2023-11-24T03:39:33.618Z,97818.66
2023-11-24T03:42:06.512Z,97829.06
2023-11-24T03:44:40.171Z,97820.91
2023-11-24T03:47:13.284Z,97812.03
2023-11-24T03:49:46.472Z,97818.06
2023-11-24T03:52:19.317Z,97820.81
2023-11-24T03:54:53.666Z,97825.28
2023-11-24T03:57:27.245Z,97819.78
2023-11-24T04:00:00.191Z,97822.34
2023-11-24T04:02:33.121Z,97799.25
2023-11-24T04:05:06.969Z,97806.34
2023-11-24T04:07:40.848Z,97800.38
2023-11-24T04:10:15.096Z,97813.63
2023-11-24T04:12:48.624Z,97803.81
2023-11-24T04:15:21.730Z,97805.63
2023-11-24T04:17:54.672Z,97806.88
2023-11-24T04:20:27.639Z,97798.13
2023-11-24T04:23:00.542Z,97798.75
2023-11-24T04:25:34.911Z,97796.75
2023-11-24T04:28:07.816Z,97801.84
2023-11-24T04:30:41.343Z,97787.56
2023-11-24T04:33:14.251Z,97777.91
2023-11-24T04:35:48.117Z,97817.00
2023-11-24T04:38:20.978Z,97808.38
2023-11-24T04:40:55.261Z,97807.63
2023-11-24T04:43:28.743Z,97800.63
2023-11-24T04:46:01.721Z,97803.59
2023-11-24T04:48:35.444Z,97809.38
2023-11-24T04:51:08.385Z,97808.06
2023-11-24T04:53:41.856Z,97805.91
2023-11-24T04:56:16.129Z,97805.44
2023-11-24T04:58:48.987Z,97813.78
2023-11-24T05:01:21.918Z,97808.69
2023-11-24T05:03:56.442Z,97811.72
2023-11-24T05:06:29.434Z,97823.34
2023-11-24T05:09:02.828Z,97824.19
2023-11-24T05:11:37.149Z,97817.97
2023-11-24T05:14:10.051Z,97810.03
2023-11-24T05:16:43.084Z,97831.09
2023-11-24T05:19:16.120Z,97829.47
2023-11-24T05:21:49.075Z,97829.84
2023-11-24T05:24:22.350Z,97839.88
2023-11-24T05:26:57.631Z,97836.78
2023-11-24T05:29:32.062Z,97829.31
2023-11-24T05:32:05.658Z,97834.97
2023-11-24T05:34:38.593Z,97830.13
2023-11-24T05:37:11.529Z,97833.19
2023-11-24T05:39:44.478Z,97833.53
2023-11-24T05:42:18.834Z,97826.06
2023-11-24T05:44:51.820Z,97844.75
2023-11-24T05:47:24.918Z,97845.69
2023-11-24T05:49:57.882Z,97838.81
2023-11-24T05:52:30.832Z,97850.69
2023-11-24T05:55:03.982Z,97840.69
2023-11-24T05:57:38.599Z,97843.94
2023-11-24T06:00:15.656Z,97837.59
2023-11-24T06:02:48.671Z,97838.56
2023-11-24T06:05:21.606Z,97845.63
2023-11-24T06:07:56.437Z,97844.03
2023-11-24T06:10:30.726Z,97837.22
2023-11-24T06:13:05.653Z,97846.16
2023-11-24T06:15:38.580Z,97856.00
2023-11-24T06:18:11.714Z,97857.03
2023-11-24T06:20:44.687Z,97852.78
2023-11-24T06:23:17.611Z,97854.66
2023-11-24T06:25:50.494Z,97863.53
2023-11-24T06:28:26.038Z,97862.41
2023-11-24T06:30:58.930Z,97869.94
2023-11-24T06:33:31.948Z,97866.19
2023-11-24T06:36:05.174Z,97871.13
2023-11-24T06:38:38.108Z,97869.03
2023-11-24T06:41:11.061Z,97870.66
2023-11-24T06:43:45.369Z,97874.91
2023-11-24T06:46:18.387Z,97876.53
2023-11-24T06:48:54.232Z,97875.59
2023-11-24T06:51:27.501Z,97882.56
2023-11-24T06:54:00.690Z,97870.13
2023-11-24T06:56:33.571Z,97863.13
2023-11-24T06:59:08.824Z,97867.66
2023-11-24T07:01:41.801Z,97876.69
2023-11-24T07:04:14.969Z,97875.88
2023-11-24T07:06:47.992Z,97866.69
2023-11-24T07:09:22.043Z,97874.16
2023-11-24T07:11:54.679Z,97879.28
2023-11-24T07:14:28.967Z,97868.22
2023-11-24T07:17:02.916Z,97883.91
2023-11-24T07:19:35.981Z,97878.72
2023-11-24T07:22:09.352Z,97883.81
2023-11-24T07:24:43.995Z,97883.34
2023-11-24T07:27:18.347Z,97881.91
2023-11-24T07:29:52.981Z,97885.41
2023-11-24T07:32:29.584Z,97867.06
2023-11-24T07:35:03.131Z,97883.63
2023-11-24T07:37:36.059Z,97875.72
2023-11-24T07:40:15.432Z,97867.13
2023-11-24T07:42:48.976Z,97883.13
2023-11-24T07:45:23.596Z,97864.13
2023-11-24T07:47:56.536Z,97871.78
2023-11-24T07:50:29.497Z,97869.97
2023-11-24T07:53:04.286Z,97870.66
2023-11-24T07:55:37.096Z,97873.06
2023-11-24T07:58:10.118Z,97871.44
2023-11-24T08:00:45.552Z,97869.66
2023-11-24T08:03:19.120Z,97857.34
2023-11-24T08:05:53.597Z,97849.72
2023-11-24T08:08:26.744Z,97861.34
2023-11-24T08:10:59.680Z,97865.69
2023-11-24T08:13:32.670Z,97862.31
2023-11-24T08:16:08.146Z,97863.25
2023-11-24T08:18:41.114Z,97856.22
2023-11-24T08:21:14.630Z,97857.75
2023-11-24T08:23:47.579Z,97843.06
2023-11-24T08:26:22.455Z,97844.56
2023-11-24T08:28:55.450Z,97841.91
2023-11-24T08:31:30.198Z,97841.22
2023-11-24T08:34:03.448Z,97854.00
2023-11-24T08:36:36.496Z,97846.59
2023-11-24T08:39:13.867Z,97855.53
2023-11-24T08:41:50.176Z,97853.81
2023-11-24T08:44:26.001Z,97849.56
2023-11-24T08:47:00.463Z,97846.50
2023-11-24T08:49:34.133Z,97855.06
2023-11-24T08:52:07.407Z,97842.78
2023-11-24T08:54:41.447Z,97850.72
2023-11-24T08:57:14.436Z,97828.97
2023-11-24T08:59:47.299Z,97856.31
2023-11-24T09:02:23.387Z,97845.59
2023-11-24T09:04:56.498Z,97855.03
2023-11-24T09:07:29.620Z,97858.41
2023-11-24T09:10:03.833Z,97866.97
2023-11-24T09:12:36.877Z,97865.66
2023-11-24T09:15:11.540Z,97883.84
2023-11-24T09:17:45.868Z,97882.31
2023-11-24T09:20:20.194Z,97866.28
2023-11-24T09:22:53.198Z,97862.34
2023-11-24T09:25:26.166Z,97844.41
2023-11-24T09:27:59.095Z,97853.56
2023-11-24T09:30:31.974Z,97845.91
2023-11-24T09:33:08.992Z,97851.28
2023-11-24T09:35:41.907Z,97846.88
2023-11-24T09:38:15.140Z,97843.97
2023-11-24T09:40:48.529Z,97845.25
2023-11-24T09:43:21.903Z,97839.78
2023-11-24T09:45:54.933Z,97837.69
2023-11-24T09:48:33.379Z,97840.16
2023-11-24T09:51:07.502Z,97839.28
2023-11-24T09:53:44.085Z,97837.88
2023-11-24T09:56:17.406Z,97833.72
2023-11-24T09:58:51.034Z,97814.13
2023-11-24T10:01:24.747Z,97814.97
2023-11-24T10:04:01.784Z,97820.19
2023-11-24T10:06:36.589Z,97814.78
2023-11-24T10:09:11.769Z,97811.28
2023-11-24T10:11:44.947Z,97794.06
2023-11-24T10:14:17.901Z,97808.59
2023-11-24T10:16:51.179Z,97807.00
2023-11-24T10:19:28.688Z,97805.09
2023-11-24T10:22:01.648Z,97801.59
2023-11-24T10:24:36.815Z,97805.53
2023-11-24T10:27:22.019Z,97801.06
2023-11-24T10:29:54.923Z,97795.34
2023-11-24T10:32:28.563Z,97790.50
2023-11-24T10:35:02.913Z,97792.53
2023-11-24T10:37:39.077Z,97782.78
2023-11-24T10:40:16.935Z,97784.88
2023-11-24T10:42:51.932Z,97795.59
2023-11-24T10:45:25.399Z,97794.22
2023-11-24T10:48:10.929Z,97789.78
2023-11-24T10:50:51.451Z,97787.44
2023-11-24T10:53:27.951Z,97799.16
2023-11-24T10:56:04.686Z,97791.13
2023-11-24T10:58:38.132Z,97794.63
2023-11-24T11:01:11.848Z,97799.38
2023-11-24T11:03:45.232Z,97793.63
2023-11-24T11:06:30.721Z,97788.00
2023-11-24T11:09:20.719Z,97791.06
2023-11-24T11:12:20.525Z,97811.59
2023-11-24T11:14:54.168Z,97801.50
2023-11-24T11:17:27.769Z,97799.09
2023-11-24T11:20:01.493Z,97795.78
2023-11-24T11:22:37.886Z,97786.25
2023-11-24T11:25:39.598Z,97780.38
2023-11-24T11:28:36.644Z,97784.50
2023-11-24T11:31:24.327Z,97794.06
2023-11-24T11:34:11.669Z,97797.19
2023-11-24T11:37:06.229Z,97794.16
2023-11-24T11:39:54.424Z,97795.28
2023-11-24T11:42:51.995Z,97802.19
2023-11-24T11:45:31.180Z,97798.72
2023-11-24T11:48:07.115Z,97798.66
2023-11-24T11:50:51.125Z,97802.91
2023-11-24T11:56:19.621Z,97801.84
2023-11-24T11:58:52.489Z,97806.19
2023-11-24T12:01:25.564Z,97806.78
2023-11-24T12:03:58.527Z,97797.44
2023-11-24T12:06:31.686Z,97801.63
2023-11-24T12:09:06.759Z,97801.72
2023-11-24T12:11:41.429Z,97798.81
2023-11-24T12:14:14.687Z,97786.34
2023-11-24T12:16:47.704Z,97789.53
2023-11-24T12:19:20.630Z,97787.84
2023-11-24T12:21:53.638Z,97780.59
2023-11-24T12:24:28.480Z,97783.28
2023-11-24T12:27:03.552Z,97791.69
2023-11-24T12:29:39.595Z,97793.94
2023-11-24T12:32:13.318Z,97802.28
2023-11-24T12:34:46.964Z,97802.00
2023-11-24T12:37:19.978Z,97799.03
2023-11-24T12:39:53.058Z,97795.50
2023-11-24T12:42:30.471Z,97797.38
2023-11-24T12:45:04.106Z,97795.34
2023-11-24T12:47:41.873Z,97797.63
2023-11-24T12:50:16.779Z,97791.06
2023-11-24T12:52:51.199Z,97789.22
2023-11-24T12:55:24.222Z,97797.97
2023-11-24T12:57:58.585Z,97794.31
2023-11-24T13:00:31.693Z,97795.78
2023-11-24T13:03:04.659Z,97795.16
2023-11-24T13:05:39.412Z,97793.53
2023-11-24T13:08:12.538Z,97792.59
2023-11-24T13:10:49.050Z,97778.94
2023-11-24T13:13:23.541Z,97780.53
2023-11-24T13:15:56.598Z,97784.75
2023-11-24T13:18:30.258Z,97787.03
2023-11-24T13:21:03.170Z,97793.91
2023-11-24T13:23:36.084Z,97802.25
2023-11-24T13:26:11.423Z,97799.88
2023-11-24T13:28:45.648Z,97800.28
2023-11-24T13:31:18.512Z,97811.06
2023-11-24T13:33:51.620Z,97810.22
2023-11-24T13:36:24.506Z,97808.50
2023-11-24T13:38:57.327Z,97810.31
2023-11-24T13:41:31.438Z,97805.31
2023-11-24T13:44:06.089Z,97812.63
2023-11-24T13:46:39.306Z,97819.13
2023-11-24T13:49:14.741Z,97820.09
2023-11-24T13:51:48.186Z,97823.03
2023-11-24T13:54:24.621Z,97821.53
2023-11-24T13:56:58.117Z,97829.94
2023-11-24T13:59:33.031Z,97847.44
2023-11-24T14:02:07.608Z,97864.06
2023-11-24T14:04:40.676Z,97855.38
2023-11-24T14:07:15.576Z,97854.25
2023-11-24T14:09:49.959Z,97841.56
2023-11-24T14:12:23.003Z,97840.31
2023-11-24T14:14:57.784Z,97841.81
2023-11-24T14:17:30.912Z,97839.78
2023-11-24T14:20:04.192Z,97846.31
2023-11-24T14:22:37.529Z,97851.06
2023-11-24T14:25:12.398Z,97845.88
2023-11-24T14:27:45.889Z,97836.44
2023-11-24T14:30:20.262Z,97831.25
2023-11-24T14:32:53.489Z,97831.44
2023-11-24T14:35:26.381Z,97817.75
2023-11-24T14:37:59.245Z,97819.97
2023-11-24T14:40:33.871Z,97816.41
2023-11-24T14:43:06.982Z,97816.44
2023-11-24T14:45:41.782Z,97811.91
2023-11-24T14:48:17.977Z,97812.28
2023-11-24T14:50:51.306Z,97816.13
2023-11-24T14:53:24.585Z,97812.03
2023-11-24T14:55:57.439Z,97820.03
2023-11-24T14:58:30.551Z,97822.94
2023-11-24T15:01:05.334Z,97818.56
2023-11-24T15:03:39.673Z,97820.53
2023-11-24T15:06:15.484Z,97826.81
2023-11-24T15:08:50.083Z,97822.75
2023-11-24T15:11:34.598Z,97829.09
2023-11-24T15:14:14.524Z,97843.31
2023-11-24T15:16:55.882Z,97835.56
2023-11-24T15:19:29.517Z,97840.06
2023-11-24T15:22:06.206Z,97834.03
2023-11-24T15:24:39.782Z,97844.56
2023-11-24T15:27:14.786Z,97835.84
2023-11-24T15:29:47.707Z,97839.22
2023-11-24T15:32:22.507Z,97844.34
2023-11-24T15:34:56.702Z,97847.66
2023-11-24T15:37:29.611Z,97849.97
2023-11-24T15:40:02.542Z,97845.28
2023-11-24T15:42:35.400Z,97839.75
2023-11-24T15:45:11.835Z,97841.31
2023-11-24T15:47:57.264Z,97850.81
2023-11-24T15:50:35.837Z,97843.78
2023-11-24T15:53:08.947Z,97835.06
2023-11-24T15:55:45.766Z,97839.59
2023-11-24T15:58:19.127Z,97831.84
2023-11-24T16:00:52.196Z,97829.28
2023-11-24T16:03:26.605Z,97829.53
2023-11-24T16:06:05.764Z,97837.63
2023-11-24T16:08:45.626Z,97824.59
2023-11-24T16:11:25.647Z,97828.28
2023-11-24T16:13:59.659Z,97827.56
2023-11-24T16:16:32.638Z,97832.91
2023-11-24T16:19:07.008Z,97831.31
2023-11-24T16:21:43.059Z,97834.97
2023-11-24T16:24:16.048Z,97833.34
2023-11-24T16:26:49.618Z,97825.53
2023-11-24T16:29:23.780Z,97822.97
2023-11-24T16:31:58.113Z,97818.69
2023-11-24T16:34:32.428Z,97827.72
2023-11-24T16:37:05.757Z,97828.66
2023-11-24T16:39:38.692Z,97825.25
2023-11-24T16:42:11.564Z,97828.06
2023-11-24T16:44:46.825Z,97831.69
2023-11-24T16:47:19.833Z,97823.84
2023-11-24T16:49:54.277Z,97840.78
2023-11-24T16:52:28.213Z,97841.72
2023-11-24T16:55:00.948Z,97837.63
2023-11-24T16:57:35.047Z,97841.88
2023-11-24T17:00:08.982Z,97836.75
2023-11-24T17:02:41.913Z,97824.56
2023-11-24T17:05:16.568Z,97820.34
2023-11-24T17:07:49.414Z,97821.34
2023-11-24T17:10:23.877Z,97813.50
2023-11-24T17:12:57.242Z,97820.56
2023-11-24T17:15:40.372Z,97816.16
2023-11-24T17:18:14.061Z,97810.13
2023-11-24T17:20:49.223Z,97808.31
2023-11-24T17:23:22.200Z,97806.47
2023-11-24T17:25:55.733Z,97801.28
2023-11-24T17:28:29.604Z,97799.34
2023-11-24T17:31:05.446Z,97807.38
2023-11-24T17:33:39.555Z,97799.84
2023-11-24T17:36:15.289Z,97797.91
2023-11-24T17:38:48.289Z,97801.06
2023-11-24T17:41:21.162Z,97802.63
2023-11-24T17:43:54.323Z,97801.44
2023-11-24T17:46:32.568Z,97801.09
2023-11-24T17:49:19.950Z,97805.97
2023-11-24T17:52:35.842Z,97806.75
2023-11-24T17:55:13.154Z,97805.03
2023-11-24T17:57:50.136Z,97804.19
2023-11-24T18:03:15.928Z,97799.91
2023-11-24T18:05:49.557Z,97797.28
2023-11-24T18:08:24.022Z,97805.19
2023-11-24T18:10:57.136Z,97807.66
2023-11-24T18:13:30.072Z,97814.56
2023-11-24T18:16:03.838Z,97809.97
2023-11-24T18:18:36.905Z,97800.03
2023-11-24T18:21:09.934Z,97808.53
2023-11-24T18:23:45.943Z,97803.00
2023-11-24T18:26:19.383Z,97803.69
2023-11-24T18:28:53.098Z,97803.50
2023-11-24T18:31:26.227Z,97807.69
2023-11-24T18:33:59.606Z,97805.72
2023-11-24T18:36:32.543Z,97800.28
2023-11-24T18:39:13.193Z,97807.19
2023-11-24T18:41:46.061Z,97817.56
2023-11-24T18:44:18.978Z,97812.13
2023-11-24T18:46:52.002Z,97811.09
2023-11-24T18:49:25.458Z,97817.13
2023-11-24T18:51:58.507Z,97810.00
2023-11-24T18:54:33.022Z,97806.47
2023-11-24T18:57:07.964Z,97802.16
2023-11-24T18:59:40.879Z,97798.66
2023-11-24T19:02:16.163Z,97819.09
2023-11-24T19:04:50.399Z,97805.22
2023-11-24T19:07:24.061Z,97809.75
2023-11-24T19:09:58.736Z,97797.47
2023-11-24T19:12:31.959Z,97805.38
2023-11-24T19:15:08.841Z,97799.19
2023-11-24T19:17:43.023Z,97802.59
2023-11-24T19:20:17.136Z,97799.84
2023-11-24T19:22:49.888Z,97795.50
2023-11-24T19:25:24.334Z,97783.84
2023-11-24T19:27:57.435Z,97789.88
2023-11-24T19:30:30.453Z,97781.13
2023-11-24T19:33:03.596Z,97788.09
2023-11-24T19:35:36.549Z,97781.97
2023-11-24T19:38:09.561Z,97789.03
2023-11-24T19:40:43.995Z,97783.84
2023-11-24T19:43:17.061Z,97786.50
2023-11-24T19:45:50.163Z,97786.66
2023-11-24T19:48:23.124Z,97778.09
2023-11-24T19:50:56.057Z,97773.91
2023-11-24T19:53:28.960Z,97773.16
2023-11-24T19:56:03.207Z,97760.97
2023-11-24T19:58:36.137Z,97764.56
2023-11-24T20:01:09.098Z,97766.41
2023-11-24T20:03:42.165Z,97763.84
2023-11-24T20:06:15.124Z,97758.59
2023-11-24T20:08:48.124Z,97762.09
2023-11-24T20:11:22.763Z,97770.75
2023-11-24T20:13:55.728Z,97769.63
2023-11-24T20:16:29.316Z,97774.75
2023-11-24T20:19:02.534Z,97772.88
2023-11-24T20:21:35.497Z,97780.63
2023-11-24T20:24:09.808Z,97773.47
2023-11-24T20:26:44.108Z,97775.09
2023-11-24T20:29:20.312Z,97777.63
2023-11-24T20:31:57.346Z,97775.69
2023-11-24T20:34:30.362Z,97776.44
2023-11-24T20:37:03.516Z,97773.72
2023-11-24T20:39:36.431Z,97768.25
2023-11-24T20:42:10.767Z,97766.38
2023-11-24T20:44:43.698Z,97767.91
2023-11-24T20:47:17.094Z,97762.53
2023-11-24T20:49:51.515Z,97772.22
2023-11-24T20:52:24.444Z,97775.84
2023-11-24T20:54:57.438Z,97770.63
2023-11-24T20:57:31.700Z,97771.31
2023-11-24T21:00:11.235Z,97770.28
2023-11-24T21:02:44.317Z,97784.25
2023-11-24T21:05:17.404Z,97759.66
2023-11-24T21:07:51.448Z,97768.50
2023-11-24T21:10:24.138Z,97758.50
2023-11-24T21:12:58.418Z,97758.72
2023-11-24T21:15:31.312Z,97766.31
2023-11-24T21:18:06.213Z,97759.69
2023-11-24T21:20:39.367Z,97769.63
2023-11-24T21:23:13.191Z,97776.78
2023-11-24T21:25:46.213Z,97769.91
2023-11-24T21:28:21.030Z,97770.00
2023-11-24T21:30:54.013Z,97761.22
2023-11-24T21:33:26.987Z,97764.72
2023-11-24T21:36:00.381Z,97768.22
2023-11-24T21:38:33.467Z,97768.28
2023-11-24T21:41:06.798Z,97776.13
2023-11-24T21:43:41.689Z,97767.38
2023-11-24T21:46:20.141Z,97769.13
2023-11-24T21:48:53.204Z,97778.00
2023-11-24T21:51:26.643Z,97774.56
2023-11-24T21:54:00.158Z,97772.72
2023-11-24T21:56:33.624Z,97772.81
2023-11-24T21:59:09.937Z,97765.66
2023-11-24T22:01:43.280Z,97769.22
2023-11-24T22:04:16.323Z,97775.44
2023-11-24T22:06:49.396Z,97772.91
2023-11-24T22:09:22.306Z,97773.81
2023-11-24T22:11:55.287Z,97779.94
2023-11-24T22:14:30.083Z,97773.81
2023-11-24T22:17:06.076Z,97772.19
2023-11-24T22:19:39.878Z,97785.38
2023-11-24T22:22:12.751Z,97773.91
2023-11-24T22:24:45.694Z,97779.94
2023-11-24T22:27:19.358Z,97781.81
2023-11-24T22:30:01.459Z,97787.09
2023-11-24T22:32:37.726Z,97782.66
2023-11-24T22:35:10.943Z,97795.00
2023-11-24T22:37:43.965Z,97783.69
2023-11-24T22:40:17.269Z,97783.63
2023-11-24T22:42:52.324Z,97779.25
2023-11-24T22:45:26.578Z,97779.25
2023-11-24T22:47:59.547Z,97782.66
2023-11-24T22:50:32.449Z,97781.72
2023-11-24T22:53:05.407Z,97786.16
2023-11-24T22:55:38.430Z,97784.38
2023-11-24T22:58:12.292Z,97785.22
2023-11-24T23:00:47.329Z,97778.25
2023-11-24T23:03:20.452Z,97780.97
2023-11-24T23:05:53.634Z,97789.81
2023-11-24T23:08:27.549Z,97779.25
2023-11-24T23:11:01.065Z,97781.41
2023-11-24T23:13:34.286Z,97787.34
2023-11-24T23:16:10.888Z,97788.22
2023-11-24T23:18:45.802Z,97770.50
2023-11-24T23:21:22.048Z,97781.06
2023-11-24T23:23:57.135Z,97781.06
2023-11-24T23:26:30.177Z,97776.53
2023-11-24T23:29:04.786Z,97774.00
2023-11-24T23:31:40.047Z,97767.88
2023-11-24T23:34:13.588Z,97767.69
2023-11-24T23:36:46.553Z,97761.47
2023-11-24T23:39:19.970Z,97762.34
2023-11-24T23:41:52.974Z,97745.66
2023-11-24T23:44:25.867Z,97748.28
2023-11-24T23:47:00.217Z,97745.66
2023-11-24T23:49:33.573Z,97742.94
2023-11-24T23:52:07.106Z,97740.19
2023-11-24T23:54:40.600Z,97736.56
2023-11-24T23:57:13.482Z,97739.19
2023-11-24T23:59:46.407Z,97743.63
